createdAt,value
2023-04-25T00:00:08.461Z,3.00
2023-04-25T00:03:17.335Z,3.07
2023-04-25T00:06:22.806Z,3.03
2023-04-25T00:09:30.167Z,2.80
2023-04-25T00:12:35.365Z,2.77
2023-04-25T00:15:42.799Z,2.87
2023-04-25T00:18:52.388Z,3.17
2023-04-25T00:21:57.439Z,3.13
2023-04-25T00:25:04.678Z,3.83
2023-04-25T00:28:11.476Z,2.90
2023-04-25T00:31:16.812Z,2.80
2023-04-25T00:34:22.090Z,3.30
2023-04-25T00:37:27.236Z,3.00
2023-04-25T00:40:33.852Z,3.00
2023-04-25T00:43:39.873Z,3.00
2023-04-25T00:46:45.712Z,2.53
2023-04-25T00:49:50.839Z,2.60
2023-04-25T00:52:56.469Z,2.80
2023-04-25T00:56:03.108Z,2.10
2023-04-25T00:59:09.023Z,2.73
2023-04-25T01:02:14.253Z,2.60
2023-04-25T01:05:19.941Z,2.00
2023-04-25T01:08:27.504Z,2.43
2023-04-25T01:11:34.144Z,2.13
2023-04-25T01:14:39.175Z,2.27
2023-04-25T01:17:45.230Z,2.43
2023-04-25T01:20:51.165Z,2.63
2023-04-25T01:23:58.298Z,2.50
2023-04-25T01:27:04.094Z,3.40
2023-04-25T01:30:10.562Z,2.20
2023-04-25T01:33:17.455Z,2.40
2023-04-25T01:36:23.373Z,2.23
2023-04-25T01:39:29.811Z,2.23
2023-04-25T01:42:35.354Z,1.83
2023-04-25T01:45:42.323Z,1.70
2023-04-25T01:48:48.997Z,1.80
2023-04-25T01:51:54.140Z,2.10
2023-04-25T01:55:03.059Z,2.00
2023-04-25T01:58:14.222Z,1.93
2023-04-25T02:01:39.183Z,1.83
2023-04-25T02:04:58.747Z,1.63
2023-04-25T02:08:06.898Z,1.47
2023-04-25T02:11:14.855Z,1.37
2023-04-25T02:14:26.035Z,1.27
2023-04-25T02:17:41.725Z,1.37
2023-04-25T02:20:47.379Z,1.40
2023-04-25T02:23:53.349Z,1.20
2023-04-25T02:27:00.456Z,1.40
2023-04-25T02:30:07.928Z,1.40
2023-04-25T02:33:12.974Z,1.50
2023-04-25T02:36:18.308Z,1.57
2023-04-25T02:39:23.381Z,1.13
2023-04-25T02:42:29.821Z,1.20
2023-04-25T02:45:36.086Z,1.30
2023-04-25T02:48:41.314Z,1.40
2023-04-25T02:51:46.336Z,1.20
2023-04-25T02:54:51.753Z,1.07
2023-04-25T02:57:58.242Z,1.20
2023-04-25T03:01:15.400Z,1.20
2023-04-25T03:04:21.996Z,1.20
2023-04-25T03:07:27.318Z,1.40
2023-04-25T03:10:32.345Z,1.10
2023-04-25T03:13:43.434Z,1.30
2023-04-25T03:16:49.772Z,1.10
2023-04-25T03:19:56.252Z,1.20
2023-04-25T03:23:01.487Z,1.30
2023-04-25T03:26:08.203Z,1.10
2023-04-25T03:29:14.687Z,1.23
2023-04-25T03:32:21.860Z,1.10
2023-04-25T03:35:27.218Z,1.10
2023-04-25T03:38:33.477Z,1.10
2023-04-25T03:41:38.576Z,1.30
2023-04-25T03:44:51.468Z,1.20
2023-04-25T03:47:56.637Z,1.20
2023-04-25T03:51:01.972Z,1.20
2023-04-25T03:54:08.751Z,1.37
2023-04-25T03:57:31.677Z,1.30
2023-04-25T04:00:39.329Z,1.17
2023-04-25T04:03:44.929Z,1.40
2023-04-25T04:06:50.712Z,1.50
2023-04-25T04:10:02.298Z,1.30
2023-04-25T04:13:15.512Z,2.00
2023-04-25T04:16:22.241Z,2.87
2023-04-25T04:19:28.720Z,1.60
2023-04-25T04:23:03.731Z,2.03
2023-04-25T04:26:09.778Z,1.70
2023-04-25T04:29:50.305Z,1.70
2023-04-25T04:33:04.896Z,1.90
2023-04-25T04:36:11.335Z,1.93
2023-04-25T04:39:16.896Z,1.90
2023-04-25T04:42:34.088Z,2.10
2023-04-25T04:46:06.100Z,2.23
2023-04-25T04:49:13.376Z,2.00
2023-04-25T04:52:43.986Z,2.27
2023-04-25T04:56:15.376Z,2.30
2023-04-25T04:59:33.849Z,3.90
2023-04-25T05:02:42.005Z,2.30
2023-04-25T05:06:09.937Z,2.43
2023-04-25T05:09:50.474Z,3.37
2023-04-25T05:13:21.829Z,2.67
2023-04-25T05:16:46.084Z,2.93
2023-04-25T05:20:29.511Z,2.90
2023-04-25T05:23:56.796Z,3.13
2023-04-25T05:27:20.689Z,3.37
2023-04-25T05:30:44.622Z,3.00
2023-04-25T05:33:54.995Z,2.90
2023-04-25T05:37:01.445Z,3.00
2023-04-25T05:40:10.694Z,2.90
2023-04-25T05:43:24.726Z,5.13
2023-04-25T05:46:39.478Z,3.20
2023-04-25T05:50:13.069Z,3.50
2023-04-25T05:53:38.581Z,2.40
2023-04-25T05:56:46.123Z,2.30
2023-04-25T05:59:51.220Z,2.20
2023-04-25T06:02:57.164Z,2.17
2023-04-25T06:06:02.609Z,2.17
2023-04-25T06:09:08.708Z,2.40
2023-04-25T06:12:15.169Z,2.40
2023-04-25T06:18:28.596Z,2.10
2023-04-25T06:21:33.999Z,2.10
2023-04-25T06:24:39.165Z,2.10
2023-04-25T06:27:45.679Z,2.40
2023-04-25T06:30:51.611Z,2.17
2023-04-25T06:33:58.183Z,2.00
2023-04-25T06:37:05.477Z,2.00
2023-04-25T06:40:12.401Z,1.83
2023-04-25T06:43:19.010Z,8.37
2023-04-25T06:46:42.905Z,5.00
2023-04-25T06:49:48.018Z,2.20
2023-04-25T06:52:53.572Z,3.70
2023-04-25T06:56:00.242Z,2.30
2023-04-25T06:59:15.363Z,2.43
2023-04-25T07:02:23.499Z,2.37
2023-04-25T07:05:31.665Z,2.40
2023-04-25T07:08:37.087Z,2.40
2023-04-25T07:11:42.162Z,1.97
2023-04-25T07:14:48.787Z,2.70
2023-04-25T07:17:54.269Z,2.30
2023-04-25T07:20:59.544Z,3.73
2023-04-25T07:24:05.069Z,2.60
2023-04-25T07:27:13.938Z,2.70
2023-04-25T07:30:32.314Z,3.07
2023-04-25T07:33:37.720Z,2.80
2023-04-25T07:36:43.015Z,3.20
2023-04-25T07:39:48.205Z,3.10
2023-04-25T07:42:53.323Z,3.00
2023-04-25T07:46:07.991Z,3.50
2023-04-25T07:49:14.673Z,3.47
2023-04-25T07:52:22.511Z,4.22
2023-04-25T07:55:32.903Z,16.27
2023-04-25T07:58:46.817Z,3.63
2023-04-25T08:01:55.406Z,3.70
2023-04-25T08:05:01.236Z,3.83
2023-04-25T08:08:07.697Z,3.93
2023-04-25T08:11:13.135Z,3.75
2023-04-25T08:14:18.880Z,3.10
2023-04-25T08:17:25.827Z,3.63
2023-04-25T08:20:31.549Z,3.33
2023-04-25T08:23:39.352Z,3.85
2023-04-25T08:26:55.051Z,4.10
2023-04-25T08:30:04.078Z,4.20
2023-04-25T08:33:12.418Z,4.28
2023-04-25T08:36:41.059Z,4.53
2023-04-25T08:40:08.172Z,4.60
2023-04-25T08:43:23.991Z,4.40
2023-04-25T08:46:29.056Z,5.43
2023-04-25T08:50:07.739Z,6.28
2023-04-25T08:53:19.852Z,6.28
2023-04-25T08:56:26.100Z,9.68
2023-04-25T08:59:32.005Z,8.33
2023-04-25T09:02:37.976Z,9.33
2023-04-25T09:05:47.748Z,12.10
2023-04-25T09:08:54.855Z,10.77
2023-04-25T09:12:00.661Z,15.63
2023-04-25T09:15:12.398Z,13.43
2023-04-25T09:18:37.068Z,7.85
2023-04-25T09:21:43.568Z,6.70
2023-04-25T09:24:49.978Z,7.30
2023-04-25T09:27:57.109Z,5.70
2023-04-25T09:31:07.144Z,7.72
2023-04-25T09:34:19.138Z,7.25
2023-04-25T09:37:33.481Z,5.72
2023-04-25T09:40:46.346Z,5.20
2023-04-25T09:44:02.764Z,6.95
2023-04-25T09:47:16.173Z,7.15
2023-04-25T09:50:25.662Z,6.90
2023-04-25T09:53:42.182Z,7.05
2023-04-25T09:56:56.890Z,8.60
2023-04-25T10:00:06.254Z,6.82
2023-04-25T10:03:20.976Z,8.23
2023-04-25T10:06:51.614Z,12.60
2023-04-25T10:10:02.942Z,11.60
2023-04-25T10:13:09.256Z,8.43
2023-04-25T10:16:14.606Z,6.07
2023-04-25T10:19:19.985Z,6.43
2023-04-25T10:22:32.663Z,6.80
2023-04-25T10:29:45.602Z,5.95
2023-04-25T10:32:51.962Z,6.28
2023-04-25T10:36:01.141Z,6.68
2023-04-25T10:39:09.817Z,6.72
2023-04-25T10:42:16.494Z,5.30
2023-04-25T10:45:22.027Z,5.93
2023-04-25T10:48:30.474Z,5.45
2023-04-25T10:55:02.595Z,7.35
2023-04-25T10:58:09.208Z,7.75
2023-04-25T11:01:15.852Z,7.45
2023-04-25T11:04:25.046Z,4.57
2023-04-25T11:07:37.588Z,7.05
2023-04-25T11:10:43.335Z,5.50
2023-04-25T11:13:52.469Z,7.90
2023-04-25T11:16:59.648Z,5.22
2023-04-25T11:20:10.426Z,13.52
2023-04-25T11:23:15.665Z,5.13
2023-04-25T11:26:22.517Z,5.50
2023-04-25T11:29:29.925Z,5.68
2023-04-25T11:32:37.494Z,5.35
2023-04-25T11:35:43.737Z,9.80
2023-04-25T11:38:49.110Z,13.10
2023-04-25T11:41:54.400Z,6.32
2023-04-25T11:45:01.354Z,5.47
2023-04-25T11:48:07.035Z,5.35
2023-04-25T11:51:12.931Z,4.72
2023-04-25T11:54:18.525Z,5.43
2023-04-25T11:57:23.727Z,8.52
2023-04-25T12:00:30.481Z,4.80
2023-04-25T12:03:36.693Z,4.50
2023-04-25T12:06:42.984Z,4.40
2023-04-25T12:09:55.050Z,6.10
2023-04-25T12:13:00.252Z,5.05
2023-04-25T12:16:07.371Z,6.30
2023-04-25T12:19:16.966Z,4.93
2023-04-25T12:22:23.594Z,8.32
2023-04-25T12:25:39.371Z,5.13
2023-04-25T12:28:49.632Z,4.55
2023-04-25T12:31:57.258Z,4.70
2023-04-25T12:35:02.432Z,7.35
2023-04-25T12:38:07.550Z,4.22
2023-04-25T12:41:15.592Z,6.13
2023-04-25T12:44:20.684Z,4.63
2023-04-25T12:47:27.270Z,4.47
2023-04-25T12:50:32.720Z,7.38
2023-04-25T12:53:38.689Z,4.50
2023-04-25T12:56:44.487Z,4.63
2023-04-25T12:59:49.544Z,4.90
2023-04-25T13:02:56.485Z,5.10
2023-04-25T13:06:02.090Z,4.72
2023-04-25T13:09:07.785Z,4.95
2023-04-25T13:12:14.836Z,7.13
2023-04-25T13:15:20.061Z,7.75
2023-04-25T13:18:27.504Z,5.63
2023-04-25T13:21:34.190Z,8.30
2023-04-25T13:24:39.247Z,6.82
2023-04-25T13:27:45.340Z,5.28
2023-04-25T13:30:50.701Z,8.25
2023-04-25T13:33:57.224Z,6.45
2023-04-25T13:37:02.348Z,8.75
2023-04-25T13:40:10.585Z,8.80
2023-04-25T13:43:15.670Z,4.85
2023-04-25T13:46:40.887Z,5.65
2023-04-25T13:49:47.184Z,5.80
2023-04-25T13:52:52.536Z,5.07
2023-04-25T13:55:57.558Z,6.13
2023-04-25T13:59:02.609Z,4.85
2023-04-25T14:02:07.702Z,7.82
2023-04-25T14:05:15.437Z,4.78
2023-04-25T14:08:21.398Z,6.10
2023-04-25T14:11:26.542Z,5.47
2023-04-25T14:14:31.826Z,5.20
2023-04-25T14:17:37.085Z,5.35
2023-04-25T14:20:43.592Z,5.32
2023-04-25T14:23:49.200Z,4.85
2023-04-25T14:26:54.633Z,5.63
2023-04-25T14:29:59.786Z,7.72
2023-04-25T14:33:05.298Z,13.10
2023-04-25T14:36:12.925Z,6.07
2023-04-25T14:39:18.293Z,5.18
2023-04-25T14:42:23.900Z,6.13
2023-04-25T14:45:29.287Z,5.45
2023-04-25T14:48:34.517Z,4.07
2023-04-25T14:51:41.181Z,4.70
2023-04-25T14:54:46.366Z,6.47
2023-04-25T14:57:51.364Z,5.28
2023-04-25T15:00:57.740Z,4.40
2023-04-25T15:04:03.116Z,3.60
2023-04-25T15:07:12.211Z,6.03
2023-04-25T15:10:17.803Z,3.58
2023-04-25T15:13:22.890Z,5.75
2023-04-25T15:16:28.066Z,3.95
2023-04-25T15:19:33.293Z,4.70
2023-04-25T15:22:39.787Z,5.53
2023-04-25T15:25:44.810Z,2.85
2023-04-25T15:28:50.316Z,3.47
2023-04-25T15:31:55.528Z,3.40
2023-04-25T15:35:00.583Z,6.78
2023-04-25T15:38:07.279Z,7.53
2023-04-25T15:41:15.220Z,5.45
2023-04-25T15:44:20.392Z,3.92
2023-04-25T15:47:25.687Z,6.43
2023-04-25T15:50:30.876Z,4.60
2023-04-25T15:53:37.477Z,5.00
2023-04-25T15:56:42.610Z,8.20
2023-04-25T15:59:48.653Z,7.15
2023-04-25T16:02:53.973Z,11.40
2023-04-25T16:05:59.652Z,5.03
2023-04-25T16:09:06.758Z,6.32
2023-04-25T16:12:13.792Z,5.10
2023-04-25T16:15:19.896Z,5.40
2023-04-25T16:18:25.147Z,6.45
2023-04-25T16:21:30.642Z,5.03
2023-04-25T16:24:37.271Z,6.80
2023-04-25T16:27:42.321Z,6.28
2023-04-25T16:30:47.432Z,8.20
2023-04-25T16:33:52.875Z,7.63
2023-04-25T16:36:58.654Z,8.15
2023-04-25T16:40:09.018Z,7.65
2023-04-25T16:43:14.171Z,6.95
2023-04-25T16:46:20.426Z,11.73
2023-04-25T16:49:26.610Z,7.65
2023-04-25T16:52:31.736Z,6.60
2023-04-25T16:55:38.308Z,8.48
2023-04-25T16:58:43.460Z,8.57
2023-04-25T17:01:48.563Z,7.13
2023-04-25T17:04:53.826Z,13.30
2023-04-25T17:07:59.069Z,12.90
2023-04-25T17:11:06.089Z,9.30
2023-04-25T17:14:13.003Z,15.95
2023-04-25T17:17:18.928Z,10.52
2023-04-25T17:20:24.265Z,11.35
2023-04-25T17:23:31.580Z,9.75
2023-04-25T17:26:38.245Z,12.73
2023-04-25T17:29:43.316Z,14.68
2023-04-25T17:32:48.449Z,14.95
2023-04-25T17:35:54.332Z,12.20
2023-04-25T17:38:59.407Z,10.70
2023-04-25T17:42:07.210Z,11.88
2023-04-25T17:45:13.833Z,13.63
2023-04-25T17:48:19.034Z,14.98
2023-04-25T17:51:24.199Z,16.40
2023-04-25T17:54:29.665Z,15.73
2023-04-25T17:57:36.480Z,14.40
2023-04-25T18:00:41.814Z,12.90
2023-04-25T18:03:49.354Z,15.43
2023-04-25T18:06:55.607Z,14.00
2023-04-25T18:10:00.766Z,15.25
2023-04-25T18:13:09.158Z,18.77
2023-04-25T18:16:14.617Z,11.20
2023-04-25T18:19:22.667Z,14.18
2023-04-25T18:22:27.897Z,14.85
2023-04-25T18:25:33.783Z,14.15
2023-04-25T18:28:40.404Z,11.93
2023-04-25T18:31:46.706Z,14.18
2023-04-25T18:34:53.415Z,15.25
2023-04-25T18:37:59.168Z,13.55
2023-04-25T18:41:15.499Z,15.60
2023-04-25T18:44:32.286Z,15.48
2023-04-25T18:47:37.401Z,20.40
2023-04-25T18:50:43.996Z,22.88
2023-04-25T18:53:49.136Z,18.95
2023-04-25T18:56:55.742Z,20.10
2023-04-25T19:00:06.733Z,18.30
2023-04-25T19:03:14.604Z,18.38
2023-04-25T19:06:19.732Z,19.13
2023-04-25T19:09:25.323Z,21.10
2023-04-25T19:12:31.364Z,18.08
2023-04-25T19:15:38.005Z,19.40
2023-04-25T19:18:43.093Z,20.48
2023-04-25T19:21:50.380Z,20.25
2023-04-25T19:25:03.095Z,14.48
2023-04-25T19:28:17.919Z,19.48
2023-04-25T19:31:24.514Z,16.27
2023-04-25T19:34:29.698Z,15.63
2023-04-25T19:37:34.946Z,11.70
2023-04-25T19:40:40.225Z,11.85
2023-04-25T19:43:45.393Z,12.77
2023-04-25T19:46:51.622Z,18.90
2023-04-25T19:49:56.749Z,15.20
2023-04-25T19:53:02.173Z,18.83
2023-04-25T19:56:08.117Z,13.10
2023-04-25T19:59:13.421Z,12.52
2023-04-25T20:02:21.504Z,12.55
2023-04-25T20:05:28.069Z,13.63
2023-04-25T20:08:33.247Z,12.18
2023-04-25T20:11:38.430Z,16.75
2023-04-25T20:14:44.050Z,10.05
2023-04-25T20:17:50.561Z,13.20
2023-04-25T20:20:56.626Z,11.20
2023-04-25T20:24:02.391Z,14.43
2023-04-25T20:27:07.615Z,13.85
2023-04-25T20:30:13.945Z,17.45
2023-04-25T20:33:22.038Z,14.85
2023-04-25T20:36:27.546Z,16.63
2023-04-25T20:39:33.413Z,16.80
2023-04-25T20:42:38.994Z,11.60
2023-04-25T20:45:44.594Z,11.18
2023-04-25T20:48:52.704Z,18.00
2023-04-25T20:51:58.123Z,17.25
2023-04-25T20:55:03.445Z,16.70
2023-04-25T20:58:08.590Z,17.00
2023-04-25T21:01:13.824Z,14.57
2023-04-25T21:04:20.919Z,16.67
2023-04-25T21:07:26.754Z,15.38
2023-04-25T21:10:32.234Z,13.05
2023-04-25T21:13:37.391Z,15.05
2023-04-25T21:16:43.826Z,21.55
2023-04-25T21:19:50.363Z,14.60
2023-04-25T21:22:55.837Z,17.90
2023-04-25T21:26:00.994Z,17.92
2023-04-25T21:29:06.154Z,14.30
2023-04-25T21:32:16.666Z,13.57
2023-04-25T21:35:23.725Z,14.70
2023-04-25T21:38:28.809Z,13.05
2023-04-25T21:41:34.011Z,14.68
2023-04-25T21:44:40.139Z,9.38
2023-04-25T21:47:46.734Z,12.70
2023-04-25T21:50:53.247Z,13.90
2023-04-25T21:54:00.610Z,18.67
2023-04-25T21:57:05.826Z,15.50
2023-04-25T22:00:25.128Z,13.50
2023-04-25T22:03:30.552Z,15.65
2023-04-25T22:06:37.713Z,12.60
2023-04-25T22:09:53.901Z,16.27
2023-04-25T22:13:00.405Z,12.27
2023-04-25T22:16:06.315Z,15.55
2023-04-25T22:19:11.705Z,15.50
2023-04-25T22:22:18.352Z,10.98
2023-04-25T22:25:24.002Z,13.38
2023-04-25T22:28:29.297Z,8.65
2023-04-25T22:31:35.133Z,13.00
2023-04-25T22:34:43.232Z,10.35
2023-04-25T22:37:49.742Z,11.75
2023-04-25T22:40:54.782Z,10.00
2023-04-25T22:43:59.924Z,11.32
2023-04-25T22:47:05.082Z,14.30
2023-04-25T22:50:14.789Z,10.27
2023-04-25T22:53:21.346Z,8.18
2023-04-25T22:56:27.095Z,9.07
2023-04-25T22:59:32.294Z,10.25
2023-04-25T23:02:38.222Z,11.05
2023-04-25T23:05:43.479Z,9.38
2023-04-25T23:08:50.720Z,8.95
2023-04-25T23:11:57.400Z,7.22
2023-04-25T23:15:03.091Z,8.57
2023-04-25T23:18:09.015Z,10.88
2023-04-25T23:21:14.814Z,8.27
2023-04-25T23:24:21.419Z,10.80
2023-04-25T23:27:26.895Z,9.98
2023-04-25T23:30:31.997Z,8.57
2023-04-25T23:33:37.317Z,11.60
2023-04-25T23:36:42.779Z,12.83
2023-04-25T23:39:52.587Z,11.50
2023-04-25T23:42:58.041Z,13.80
2023-04-25T23:46:03.250Z,13.98
2023-04-25T23:49:13.673Z,15.05
2023-04-25T23:52:18.786Z,14.65
2023-04-25T23:55:26.132Z,19.05
2023-04-25T23:58:30.916Z,15.13
